MOL Modern — V7VS6 — position and weather

sailwx.info

Track history (hours):
 
Tides and Currents Weather Stations Pressure Air Temp Water Temp Dewpoint Dewpoint Depression Visibility Wind Speed Wind Dir Waves Ship Positions

MOL Modern

Last reported at 2017-Apr-27 06:58 UTC. Time now 2017-Apr-27 07:21 UTC.
Position N 32°08' W 081°08'.

Length 302 m; draft 12.3 m.

Type: Ship (hazmat cat A). MMSI: 538004203.

Date/timePositionNaut miles runAvg speedWind from/ knotsBaromVisibWave heightAir tempDewpointWater temp
2017-Apr-27 06:58N 32°08' W 081°08'0 0.0
2017-Apr-27 06:28N 32°08' W 081°08'0 0.0
2017-Apr-27 05:58N 32°08' W 081°08'0 0.0
2017-Apr-27 05:28N 32°08' W 081°08'0 0.0
2017-Apr-27 04:58N 32°08' W 081°08'0 0.0
2017-Apr-27 04:28N 32°08' W 081°08'0 0.0
2017-Apr-27 03:58N 32°08' W 081°08'0 0.0
2017-Apr-27 03:22N 32°08' W 081°08'0 0.0
2017-Apr-27 02:58N 32°08' W 081°08'0 0.0
2017-Apr-27 02:22N 32°08' W 081°08'0 0.0
2017-Apr-27 01:58N 32°08' W 081°08'0 0.0
2017-Apr-27 01:22N 32°08' W 081°08'0 0.1
2017-Apr-27 00:58N 32°08' W 081°08'0 0.0
2017-Apr-27 00:28N 32°08' W 081°08'0 0.0
2017-Apr-26 23:52N 32°08' W 081°08'0 0.0
2017-Apr-26 23:28N 32°08' W 081°08'0 0.0
2017-Apr-26 22:58N 32°08' W 081°08'0 0.0
2017-Apr-26 22:28N 32°08' W 081°08'0 0.0
2017-Apr-26 21:58N 32°08' W 081°08'0 0.0
2017-Apr-26 21:28N 32°08' W 081°08'0 0.0
2017-Apr-26 20:52N 32°08' W 081°08'0 0.0
2017-Apr-26 20:22N 32°08' W 081°08'0 0.0
2017-Apr-26 19:52N 32°08' W 081°08'0 0.0
2017-Apr-26 19:22N 32°08' W 081°08'0 0.0
2017-Apr-26 18:58N 32°08' W 081°08'0 0.0
2017-Apr-26 18:28N 32°08' W 081°08'0 0.0
2017-Apr-26 17:58N 32°08' W 081°08'0 0.0
2017-Apr-26 17:28N 32°08' W 081°08'0 0.0
2017-Apr-26 16:46N 32°08' W 081°08'0 0.1
2017-Apr-26 16:28N 32°08' W 081°08'0 0.0
2017-Apr-26 15:58N 32°08' W 081°08'0 0.0
2017-Apr-26 15:28N 32°08' W 081°08'0 0.0
2017-Apr-26 14:52N 32°08' W 081°08'0 0.0
2017-Apr-26 14:28N 32°08' W 081°08'0 0.0
2017-Apr-26 13:28N 32°08' W 081°08'0 0.0
2017-Apr-26 12:58N 32°08' W 081°08'0 0.0
2017-Apr-26 12:22N 32°08' W 081°08'0 0.0
2017-Apr-26 11:58N 32°08' W 081°08'0 0.0
2017-Apr-26 11:28N 32°08' W 081°08'0 0.0
2017-Apr-26 10:58N 32°08' W 081°08'0 0.0
2017-Apr-26 10:16N 32°08' W 081°08'0 0.0
2017-Apr-26 09:58N 32°08' W 081°08'0 0.0
2017-Apr-26 09:28N 32°08' W 081°08'0 0.0
2017-Apr-26 08:58N 32°08' W 081°08'0 0.0
2017-Apr-26 08:16N 32°08' W 081°08'0 0.0
2017-Apr-26 07:46N 32°08' W 081°08'0 0.0
2017-Apr-26 07:28N 32°08' W 081°08'0 0.0
2017-Apr-26 06:28N 32°08' W 081°08'0 0.0
2017-Apr-26 05:58N 32°08' W 081°08'0 0.0
2017-Apr-26 05:28N 32°08' W 081°08'0 0.0
2017-Apr-26 04:58N 32°08' W 081°08'0 0.0
2017-Apr-26 04:28N 32°08' W 081°08'0 0.0
2017-Apr-26 03:52N 32°08' W 081°08'0 0.0
2017-Apr-26 03:28N 32°08' W 081°08'0 0.0
2017-Apr-26 02:52N 32°08' W 081°08'0 0.0
2017-Apr-26 02:28N 32°08' W 081°08'0 0.0
2017-Apr-26 01:58N 32°08' W 081°08'0 0.0
2017-Apr-26 01:28N 32°08' W 081°08'0 0.0
2017-Apr-26 00:56N 32°08' W 081°08'0 0.9
2017-Apr-26 00:30N 32°08' W 081°08'2 3.4
2017-Apr-26 00:00N 32°06' W 081°07'3 5.1
2017-Apr-25 23:30N 32°05' W 081°05'3 5.6
2017-Apr-25 23:00N 32°05' W 081°02'4 8.6
2017-Apr-25 22:30N 32°04' W 080°57'611.2
2017-Apr-25 22:00N 32°02' W 080°51'714.3
2017-Apr-25 21:30N 31°58' W 080°44'5 9.7
2017-Apr-25 21:00N 31°56' W 080°38'3 6.7
2017-Apr-25 20:30N 31°56' W 080°35'3 5.9
2017-Apr-25 20:00N 31°56' W 080°31'4 7.4
2017-Apr-25 19:30N 31°56' W 080°27'5 9.2
2017-Apr-25 19:00N 31°56' W 080°21'2 0.2
2017-Apr-25 08:16N 31°57' W 080°20'4 6.9
2017-Apr-25 07:43N 31°56' W 080°24'310.5
2017-Apr-25 07:25N 31°55' W 080°27'1 1.8
2017-Apr-25 07:00N 31°56' W 080°28'4 7.3
2017-Apr-25 06:30N 31°56' W 080°24'28514.4
2017-Apr-24 10:44N 27°13' W 079°46'416.3
2017-Apr-24 10:30N 27°09' W 079°46'816.3
2017-Apr-24 10:00N 27°01' W 079°47'816.3
2017-Apr-24 09:30N 26°52' W 079°47'816.2
2017-Apr-24 08:59N 26°44' W 079°48'816.2
2017-Apr-24 08:30N 26°36' W 079°48'816.2
2017-Apr-24 08:01N 26°28' W 079°49'816.3
2017-Apr-24 07:30N 26°20' W 079°50'816.1
2017-Apr-24 07:00N 26°12' W 079°51'816.3
2017-Apr-24 06:30N 26°05' W 079°54'816.5
2017-Apr-24 06:00N 25°57' W 079°57'816.9
2017-Apr-24 05:30N 25°49' W 080°01'612.4
2017-Apr-24 05:00N 25°45' W 080°07'3 5.6
2017-Apr-24 04:31N 25°46' W 080°10'0 0.4
2017-Apr-24 04:01N 25°46' W 080°10'0 0.7
2017-Apr-24 03:29N 25°46' W 080°09'0 0.0
2017-Apr-24 02:59N 25°46' W 080°09'0 0.0
2017-Apr-24 02:29N 25°46' W 080°09'0 0.0
2017-Apr-24 01:56N 25°46' W 080°09'0 0.0
2017-Apr-24 01:29N 25°46' W 080°09'0 0.0
2017-Apr-24 00:53N 25°46' W 080°09'0 0.0
2017-Apr-24 00:29N 25°46' W 080°09'0 0.0
2017-Apr-23 23:56N 25°46' W 080°09'0 0.0
2017-Apr-23 23:23N 25°46' W 080°09'0 0.0
2017-Apr-23 22:50N 25°46' W 080°09'0 0.0
2017-Apr-23 22:29N 25°46' W 080°09'0 0.0
2017-Apr-23 21:59N 25°46' W 080°09'0 0.0
2017-Apr-23 21:19N 25°46' W 080°09'0 0.0
2017-Apr-23 20:59N 25°46' W 080°09'0 0.0
2017-Apr-23 20:29N 25°46' W 080°09'0 0.0
2017-Apr-23 19:59N 25°46' W 080°09'0 0.0
2017-Apr-23 19:26N 25°46' W 080°09'0 0.0
2017-Apr-23 18:56N 25°46' W 080°09'0 0.0
2017-Apr-23 18:28N 25°46' W 080°09'0 0.0
2017-Apr-23 17:56N 25°46' W 080°09'0 0.0
2017-Apr-23 17:29N 25°46' W 080°09'0 0.0
2017-Apr-23 16:55N 25°46' W 080°09'0 0.0
2017-Apr-23 16:20N 25°46' W 080°09'0 0.0
2017-Apr-23 15:59N 25°46' W 080°09'0 0.0
2017-Apr-23 15:23N 25°46' W 080°09'0 1.0
2017-Apr-23 15:00N 25°46' W 080°09'6 6.3
2017-Apr-23 14:00N 25°48' W 080°02'3 6.0
2017-Apr-23 13:30N 25°49' W 079°59'511.0
2017-Apr-23 13:00N 25°49' W 079°53'713.2
2017-Apr-23 12:30N 25°47' W 079°46'612.5
2017-Apr-23 12:00N 25°46' W 079°39'612.5
2017-Apr-23 11:30N 25°40' W 079°38'815.1
2017-Apr-23 11:00N 25°32' W 079°38'714.9
2017-Apr-23 10:30N 25°25' W 079°38'  
2017-Apr-20 10:23N 09°37' W 079°57'617.4
2017-Apr-20 10:00N 09°30' W 079°55'713.1
2017-Apr-20 09:30N 09°24' W 079°54'2 3.6
2017-Apr-20 09:00N 09°22' W 079°53'0 0.2
2017-Apr-20 08:29N 09°22' W 079°53'0 0.0
2017-Apr-20 07:59N 09°22' W 079°53'0 0.0
2017-Apr-20 07:29N 09°22' W 079°53'0 0.0
2017-Apr-20 06:56N 09°22' W 079°53'0 0.0
2017-Apr-20 06:29N 09°22' W 079°53'0 0.0
2017-Apr-20 05:59N 09°22' W 079°53'0 0.0
2017-Apr-20 05:29N 09°22' W 079°53'0 0.0
2017-Apr-20 04:56N 09°22' W 079°53'0 0.0
2017-Apr-20 04:29N 09°22' W 079°53'0 0.0
2017-Apr-20 03:53N 09°22' W 079°53'0 0.0
2017-Apr-20 03:29N 09°22' W 079°53'0 0.0
2017-Apr-20 02:59N 09°22' W 079°53'0 0.0
2017-Apr-20 02:29N 09°22' W 079°53'0 0.0
2017-Apr-20 01:59N 09°22' W 079°53'0 0.0
2017-Apr-20 01:26N 09°22' W 079°53'0 0.1
2017-Apr-20 00:56N 09°22' W 079°53'0 0.6
2017-Apr-20 00:21N 09°22' W 079°54'1 3.6
2017-Apr-20 00:00N 09°23' W 079°54'2 5.0
2017-Apr-19 23:30N 09°26' W 079°54'3 6.1
2017-Apr-19 23:00N 09°23' W 079°55'3 6.3
2017-Apr-19 22:30N 09°20' W 079°55'3 6.4
2017-Apr-19 22:00N 09°17' W 079°55'0 0.5
2017-Apr-19 21:30N 09°16' W 079°55'0 0.5
2017-Apr-19 21:00N 09°16' W 079°55'0 0.1
2017-Apr-19 20:30N 09°16' W 079°55'0 0.0
2017-Apr-19 20:00N 09°16' W 079°55'0 0.5
2017-Apr-19 19:28N 09°16' W 079°55'0 0.4
2017-Apr-19 19:00N 09°16' W 079°55'1 1.3
2017-Apr-19 18:30N 09°15' W 079°55'2 4.2
2017-Apr-19 18:00N 09°13' W 079°55'4 6.8
2017-Apr-19 17:27N 09°11' W 079°52'  
Track history (hours):
 
Tides and Currents Weather Stations Pressure Air Temp Water Temp Dewpoint Dewpoint Depression Visibility Wind Speed Wind Dir Waves Ship Positions

MOL Modern

Last reported at 2017-Apr-27 06:58 UTC. Time now 2017-Apr-27 07:21 UTC.
Position N 32°08' W 081°08'.

Length 302 m; draft 12.3 m.

Type: Ship (hazmat cat A). MMSI: 538004203.

Date/timePositionNaut miles runAvg speedWind from/ knotsBaromVisibWave heightAir tempDewpointWater temp
2017-Apr-27 06:58N 32°08' W 081°08'0 0.0
2017-Apr-27 06:28N 32°08' W 081°08'0 0.0
2017-Apr-27 05:58N 32°08' W 081°08'0 0.0
2017-Apr-27 05:28N 32°08' W 081°08'0 0.0
2017-Apr-27 04:58N 32°08' W 081°08'0 0.0
2017-Apr-27 04:28N 32°08' W 081°08'0 0.0
2017-Apr-27 03:58N 32°08' W 081°08'0 0.0
2017-Apr-27 03:22N 32°08' W 081°08'0 0.0
2017-Apr-27 02:58N 32°08' W 081°08'0 0.0
2017-Apr-27 02:22N 32°08' W 081°08'0 0.0
2017-Apr-27 01:58N 32°08' W 081°08'0 0.0
2017-Apr-27 01:22N 32°08' W 081°08'0 0.1
2017-Apr-27 00:58N 32°08' W 081°08'0 0.0
2017-Apr-27 00:28N 32°08' W 081°08'0 0.0
2017-Apr-26 23:52N 32°08' W 081°08'0 0.0
2017-Apr-26 23:28N 32°08' W 081°08'0 0.0
2017-Apr-26 22:58N 32°08' W 081°08'0 0.0
2017-Apr-26 22:28N 32°08' W 081°08'0 0.0
2017-Apr-26 21:58N 32°08' W 081°08'0 0.0
2017-Apr-26 21:28N 32°08' W 081°08'0 0.0
2017-Apr-26 20:52N 32°08' W 081°08'0 0.0
2017-Apr-26 20:22N 32°08' W 081°08'0 0.0
2017-Apr-26 19:52N 32°08' W 081°08'0 0.0
2017-Apr-26 19:22N 32°08' W 081°08'0 0.0
2017-Apr-26 18:58N 32°08' W 081°08'0 0.0
2017-Apr-26 18:28N 32°08' W 081°08'0 0.0
2017-Apr-26 17:58N 32°08' W 081°08'0 0.0
2017-Apr-26 17:28N 32°08' W 081°08'0 0.0
2017-Apr-26 16:46N 32°08' W 081°08'0 0.1
2017-Apr-26 16:28N 32°08' W 081°08'0 0.0
2017-Apr-26 15:58N 32°08' W 081°08'0 0.0
2017-Apr-26 15:28N 32°08' W 081°08'0 0.0
2017-Apr-26 14:52N 32°08' W 081°08'0 0.0
2017-Apr-26 14:28N 32°08' W 081°08'0 0.0
2017-Apr-26 13:28N 32°08' W 081°08'0 0.0
2017-Apr-26 12:58N 32°08' W 081°08'0 0.0
2017-Apr-26 12:22N 32°08' W 081°08'0 0.0
2017-Apr-26 11:58N 32°08' W 081°08'0 0.0
2017-Apr-26 11:28N 32°08' W 081°08'0 0.0
2017-Apr-26 10:58N 32°08' W 081°08'0 0.0
2017-Apr-26 10:16N 32°08' W 081°08'0 0.0
2017-Apr-26 09:58N 32°08' W 081°08'0 0.0
2017-Apr-26 09:28N 32°08' W 081°08'0 0.0
2017-Apr-26 08:58N 32°08' W 081°08'0 0.0
2017-Apr-26 08:16N 32°08' W 081°08'0 0.0
2017-Apr-26 07:46N 32°08' W 081°08'0 0.0
2017-Apr-26 07:28N 32°08' W 081°08'0 0.0
2017-Apr-26 06:28N 32°08' W 081°08'0 0.0
2017-Apr-26 05:58N 32°08' W 081°08'0 0.0
2017-Apr-26 05:28N 32°08' W 081°08'0 0.0
2017-Apr-26 04:58N 32°08' W 081°08'0 0.0
2017-Apr-26 04:28N 32°08' W 081°08'0 0.0
2017-Apr-26 03:52N 32°08' W 081°08'0 0.0
2017-Apr-26 03:28N 32°08' W 081°08'0 0.0
2017-Apr-26 02:52N 32°08' W 081°08'0 0.0
2017-Apr-26 02:28N 32°08' W 081°08'0 0.0
2017-Apr-26 01:58N 32°08' W 081°08'0 0.0
2017-Apr-26 01:28N 32°08' W 081°08'0 0.0
2017-Apr-26 00:56N 32°08' W 081°08'0 0.9
2017-Apr-26 00:30N 32°08' W 081°08'2 3.4
2017-Apr-26 00:00N 32°06' W 081°07'3 5.1
2017-Apr-25 23:30N 32°05' W 081°05'3 5.6
2017-Apr-25 23:00N 32°05' W 081°02'4 8.6
2017-Apr-25 22:30N 32°04' W 080°57'611.2
2017-Apr-25 22:00N 32°02' W 080°51'714.3
2017-Apr-25 21:30N 31°58' W 080°44'5 9.7
2017-Apr-25 21:00N 31°56' W 080°38'3 6.7
2017-Apr-25 20:30N 31°56' W 080°35'3 5.9
2017-Apr-25 20:00N 31°56' W 080°31'4 7.4
2017-Apr-25 19:30N 31°56' W 080°27'5 9.2
2017-Apr-25 19:00N 31°56' W 080°21'2 0.2
2017-Apr-25 08:16N 31°57' W 080°20'4 6.9
2017-Apr-25 07:43N 31°56' W 080°24'310.5
2017-Apr-25 07:25N 31°55' W 080°27'1 1.8
2017-Apr-25 07:00N 31°56' W 080°28'4 7.3
2017-Apr-25 06:30N 31°56' W 080°24'28514.4
2017-Apr-24 10:44N 27°13' W 079°46'416.3
2017-Apr-24 10:30N 27°09' W 079°46'816.3
2017-Apr-24 10:00N 27°01' W 079°47'816.3
2017-Apr-24 09:30N 26°52' W 079°47'816.2
2017-Apr-24 08:59N 26°44' W 079°48'816.2
2017-Apr-24 08:30N 26°36' W 079°48'816.2
2017-Apr-24 08:01N 26°28' W 079°49'816.3
2017-Apr-24 07:30N 26°20' W 079°50'816.1
2017-Apr-24 07:00N 26°12' W 079°51'816.3
2017-Apr-24 06:30N 26°05' W 079°54'816.5
2017-Apr-24 06:00N 25°57' W 079°57'816.9
2017-Apr-24 05:30N 25°49' W 080°01'612.4
2017-Apr-24 05:00N 25°45' W 080°07'3 5.6
2017-Apr-24 04:31N 25°46' W 080°10'0 0.4
2017-Apr-24 04:01N 25°46' W 080°10'0 0.7
2017-Apr-24 03:29N 25°46' W 080°09'0 0.0
2017-Apr-24 02:59N 25°46' W 080°09'0 0.0
2017-Apr-24 02:29N 25°46' W 080°09'0 0.0
2017-Apr-24 01:56N 25°46' W 080°09'0 0.0
2017-Apr-24 01:29N 25°46' W 080°09'0 0.0
2017-Apr-24 00:53N 25°46' W 080°09'0 0.0
2017-Apr-24 00:29N 25°46' W 080°09'0 0.0
2017-Apr-23 23:56N 25°46' W 080°09'0 0.0
2017-Apr-23 23:23N 25°46' W 080°09'0 0.0
2017-Apr-23 22:50N 25°46' W 080°09'0 0.0
2017-Apr-23 22:29N 25°46' W 080°09'0 0.0
2017-Apr-23 21:59N 25°46' W 080°09'0 0.0
2017-Apr-23 21:19N 25°46' W 080°09'0 0.0
2017-Apr-23 20:59N 25°46' W 080°09'0 0.0
2017-Apr-23 20:29N 25°46' W 080°09'0 0.0
2017-Apr-23 19:59N 25°46' W 080°09'0 0.0
2017-Apr-23 19:26N 25°46' W 080°09'0 0.0
2017-Apr-23 18:56N 25°46' W 080°09'0 0.0
2017-Apr-23 18:28N 25°46' W 080°09'0 0.0
2017-Apr-23 17:56N 25°46' W 080°09'0 0.0
2017-Apr-23 17:29N 25°46' W 080°09'0 0.0
2017-Apr-23 16:55N 25°46' W 080°09'0 0.0
2017-Apr-23 16:20N 25°46' W 080°09'0 0.0
2017-Apr-23 15:59N 25°46' W 080°09'0 0.0
2017-Apr-23 15:23N 25°46' W 080°09'0 1.0
2017-Apr-23 15:00N 25°46' W 080°09'6 6.3
2017-Apr-23 14:00N 25°48' W 080°02'3 6.0
2017-Apr-23 13:30N 25°49' W 079°59'511.0
2017-Apr-23 13:00N 25°49' W 079°53'713.2
2017-Apr-23 12:30N 25°47' W 079°46'612.5
2017-Apr-23 12:00N 25°46' W 079°39'612.5
2017-Apr-23 11:30N 25°40' W 079°38'815.1
2017-Apr-23 11:00N 25°32' W 079°38'714.9
2017-Apr-23 10:30N 25°25' W 079°38'  
2017-Apr-20 10:23N 09°37' W 079°57'617.4
2017-Apr-20 10:00N 09°30' W 079°55'713.1
2017-Apr-20 09:30N 09°24' W 079°54'2 3.6
2017-Apr-20 09:00N 09°22' W 079°53'0 0.2
2017-Apr-20 08:29N 09°22' W 079°53'0 0.0
2017-Apr-20 07:59N 09°22' W 079°53'0 0.0
2017-Apr-20 07:29N 09°22' W 079°53'0 0.0
2017-Apr-20 06:56N 09°22' W 079°53'0 0.0
2017-Apr-20 06:29N 09°22' W 079°53'0 0.0
2017-Apr-20 05:59N 09°22' W 079°53'0 0.0
2017-Apr-20 05:29N 09°22' W 079°53'0 0.0
2017-Apr-20 04:56N 09°22' W 079°53'0 0.0
2017-Apr-20 04:29N 09°22' W 079°53'0 0.0
2017-Apr-20 03:53N 09°22' W 079°53'0 0.0
2017-Apr-20 03:29N 09°22' W 079°53'0 0.0
2017-Apr-20 02:59N 09°22' W 079°53'0 0.0
2017-Apr-20 02:29N 09°22' W 079°53'0 0.0
2017-Apr-20 01:59N 09°22' W 079°53'0 0.0
2017-Apr-20 01:26N 09°22' W 079°53'0 0.1
2017-Apr-20 00:56N 09°22' W 079°53'0 0.6
2017-Apr-20 00:21N 09°22' W 079°54'1 3.6
2017-Apr-20 00:00N 09°23' W 079°54'2 5.0
2017-Apr-19 23:30N 09°26' W 079°54'3 6.1
2017-Apr-19 23:00N 09°23' W 079°55'3 6.3
2017-Apr-19 22:30N 09°20' W 079°55'3 6.4
2017-Apr-19 22:00N 09°17' W 079°55'0 0.5
2017-Apr-19 21:30N 09°16' W 079°55'0 0.5
2017-Apr-19 21:00N 09°16' W 079°55'0 0.1
2017-Apr-19 20:30N 09°16' W 079°55'0 0.0
2017-Apr-19 20:00N 09°16' W 079°55'0 0.5
2017-Apr-19 19:28N 09°16' W 079°55'0 0.4
2017-Apr-19 19:00N 09°16' W 079°55'1 1.3
2017-Apr-19 18:30N 09°15' W 079°55'2 4.2
2017-Apr-19 18:00N 09°13' W 079°55'4 6.8
2017-Apr-19 17:27N 09°11' W 079°52'  

Dump ship's entire track history